首页
METAR-TAF:

METAR-TAF

机场 :

杰克逊维尔, 佛罗里达州, 美国

纬度: 30-20-10N, 经度: 081-30-53W, 海拔: 12米

当前天气观测

该预报发布于27分钟前的22:53 UTC
风速8节,风向东北,有时为17节阵风
温度 17°C
湿度 77%
气压 1017 hPa
能見度: 16.1公里
少量云层高于1800英尺

METAR: KCRG 262253Z 05008G17KT 10SM FEW018 17/13 A3004 RMK AO2 SLP171 T01720133

时间: 19:20 (23:20 UTC)

预报

该预报发布于3小时和17分钟前的20:03 UTC
预报有效从26日的 20点(UTC)到 27日的 18点(UTC)
风速14节,风向东转东北,有时为22节阵风
能見度: 10公里
散云层高于1500英尺
散云层高于5000英尺
从 27日的 0200点(UTC)
风速14节,风向北转东北,有时为24节阵风
能見度: 8.0公里
阴天层高于2500英尺
轻雾, 附近有阵雨
从 27日的 1200点(UTC)
风速18节,风向北转东北,有时为28节阵风
能見度: 10公里
散云层高于2500英尺
多云层高于4000英尺

TAF: KCRG 262003Z 2620/2718 06014G22KT P6SM SCT015 SCT050 FM270200 03014G24KT 5SM BR VCSH OVC025 FM271200 02018G28KT P6SM SCT025 BKN040

超过4000个机场的气象观测和天气预报(METAR&TAF报告)。

可查询的气象台以黄色和红色小点在地图上表示。

将鼠标移到小点上方,可查看气象台名称。

然后点击查看天气观测和预报。

如需切换地图:点击带黑十字的绿色按钮放大地图;点击带横线的绿色按钮缩小地图;或者点击绿色箭头查看邻近地区的地图。


METAR-TAF: